Time;durP1;ratioP1;P1;durP2;ratioP2;P2;SDS_P1;SDS_P2;PMS_P1;PMS_P2;Temp;Humidity;BMP_temperature;BMP_pressure;BME280_temperature;BME280_humidity;BME280_pressure;Samples;Min_cycle;Max_cycle;Signal;HPM_P1;HPM_P2
2021/04/15 00:00:59;;;;;;;15.55;10.23;;;;;;;1.73;83.66;98394.11;1859843;77;21023;-73
2021/04/15 00:03:29;;;;;;;16.42;10.72;;;;;;;1.66;83.89;98394.66;1859881;77;22240;-72
2021/04/15 00:05:59;;;;;;;16.27;10.58;;;;;;;1.67;83.79;98389.61;1859625;77;21420;-72
2021/04/15 00:08:25;;;;;;;16.65;9.75;;;;;;;1.67;83.70;98392.28;1859097;77;21110;-72
2021/04/15 00:10:55;;;;;;;17.85;11.53;;;;;;;1.50;85.39;98388.46;1859795;77;21397;-72
2021/04/15 00:13:25;;;;;;;18.02;11.63;;;;;;;1.58;84.26;98392.23;1859789;77;21094;-72
2021/04/15 00:15:52;;;;;;;18.80;10.05;;;;;;;1.57;84.68;98390.08;1859676;77;21185;-72
2021/04/15 00:18:18;;;;;;;14.65;10.28;;;;;;;1.55;84.54;98389.98;1859725;77;21099;-73
2021/04/15 00:20:44;;;;;;;14.15;9.23;;;;;;;1.50;84.74;98383.94;1859689;77;21035;-72
2021/04/15 00:23:11;;;;;;;14.23;8.93;;;;;;;1.46;85.01;98381.92;1859818;77;21542;-73
2021/04/15 00:25:37;;;;;;;15.85;10.53;;;;;;;1.38;85.67;98382.45;1859707;77;21106;-73
2021/04/15 00:28:03;;;;;;;19.02;10.48;;;;;;;1.38;85.36;98378.97;1859738;77;21950;-73
2021/04/15 00:30:29;;;;;;;14.80;10.10;;;;;;;1.37;85.78;98382.16;1859730;77;21231;-73
2021/04/15 00:32:56;;;;;;;11.48;8.38;;;;;;;1.40;85.00;98374.23;1859837;77;21551;-73
2021/04/15 00:35:22;;;;;;;13.50;8.60;;;;;;;1.40;85.61;98380.91;1859701;77;21063;-72
2021/04/15 00:37:49;;;;;;;12.33;8.33;;;;;;;1.37;85.46;98383.49;1859867;77;20933;-73
2021/04/15 00:40:18;;;;;;;12.30;9.68;;;;;;;1.38;85.58;98389.65;1859770;77;22099;-73
2021/04/15 00:42:44;;;;;;;12.05;9.70;;;;;;;1.43;84.96;98384.48;1859660;77;21090;-73
2021/04/15 00:45:24;;;;;;;18.67;12.33;;;;;;;1.38;85.43;98377.64;1859752;77;21078;-73
2021/04/15 00:48:03;;;;;;;20.80;15.25;;;;;;;1.35;85.44;98373.52;1859747;77;20964;-73
2021/04/15 00:50:35;;;;;;;17.15;10.63;;;;;;;1.27;86.51;98372.94;1859802;77;21159;-73
2021/04/15 00:53:05;;;;;;;11.83;9.05;;;;;;;1.24;86.23;98369.36;1859764;77;21193;-73
2021/04/15 00:55:33;;;;;;;12.47;8.68;;;;;;;1.22;86.49;98381.59;1828731;77;21066;-73
2021/04/15 00:58:00;;;;;;;15.18;9.88;;;;;;;1.18;86.63;98380.36;1859741;77;21492;-73
2021/04/15 01:00:27;;;;;;;15.28;9.70;;;;;;;1.20;86.05;98380.98;1859748;77;21196;-73
2021/04/15 01:02:55;;;;;;;14.03;9.45;;;;;;;1.19;86.98;98380.66;1859762;77;21062;-73
2021/04/15 01:05:34;;;;;;;13.43;8.58;;;;;;;1.16;87.00;98378.42;1859642;77;21268;-73
2021/04/15 01:08:02;;;;;;;10.05;7.62;;;;;;;1.22;86.69;98376.77;1828802;77;21106;-72
2021/04/15 01:10:29;;;;;;;10.80;7.30;;;;;;;1.26;86.28;98376.64;1859724;77;21640;-72
2021/04/15 01:13:16;;;;;;;11.22;7.15;;;;;;;1.28;85.69;98375.91;1859680;77;21079;-71
2021/04/15 01:16:12;;;;;;;9.85;8.18;;;;;;;1.21;86.79;98374.62;1859714;77;21394;-72
2021/04/15 01:18:59;;;;;;;10.23;7.22;;;;;;;1.23;86.36;98375.22;1859747;77;21254;-72
2021/04/15 01:21:49;;;;;;;13.13;8.28;;;;;;;1.12;87.49;98374.03;1859607;77;21520;-74
2021/04/15 01:24:43;;;;;;;13.30;8.65;;;;;;;1.22;86.45;98374.92;1847495;76;22514;-72
2021/04/15 01:27:24;;;;;;;14.35;10.72;;;;;;;1.22;85.88;98369.58;1769292;80;21473;-73
2021/04/15 01:30:22;;;;;;;9.73;6.97;;;;;;;1.29;85.40;98373.05;1785944;80;21479;-72
2021/04/15 01:33:13;;;;;;;8.63;6.40;;;;;;;1.27;85.62;98372.41;1786044;80;28163;-72
2021/04/15 01:36:00;;;;;;;9.43;6.50;;;;;;;1.17;86.68;98372.05;1785904;79;21110;-72
2021/04/15 01:38:44;;;;;;;10.15;6.00;;;;;;;1.15;86.21;98370.11;1785950;80;21015;-73
2021/04/15 01:41:20;;;;;;;9.40;6.60;;;;;;;1.13;86.33;98374.84;1785041;80;21490;-72
2021/04/15 01:44:06;;;;;;;10.10;6.80;;;;;;;1.05;87.16;98373.23;1785802;80;21487;-73
2021/04/15 01:46:36;;;;;;;9.05;6.22;;;;;;;0.98;87.23;98367.60;1756832;80;21027;-72
2021/04/15 01:49:04;;;;;;;11.28;6.70;;;;;;;0.93;87.85;98366.88;1785828;80;21106;-73
2021/04/15 01:51:32;;;;;;;10.70;6.97;;;;;;;0.88;87.83;98368.04;1785931;80;21078;-72
2021/04/15 01:54:10;;;;;;;9.00;6.53;;;;;;;0.91;87.61;98361.45;1755976;80;21078;-73
2021/04/15 01:56:43;;;;;;;9.43;6.10;;;;;;;0.93;87.22;98359.39;1785950;80;21499;-72
2021/04/15 01:59:29;;;;;;;7.12;5.15;;;;;;;0.94;87.08;98360.55;1785765;80;21086;-73
2021/04/15 02:01:58;;;;;;;7.08;5.10;;;;;;;0.85;88.12;98360.44;1785827;80;21038;-73
2021/04/15 02:04:28;;;;;;;6.87;5.75;;;;;;;0.88;87.37;98360.03;1785932;80;21134;-73
2021/04/15 02:07:07;;;;;;;8.88;6.12;;;;;;;0.86;88.17;98358.61;1785896;79;21041;-73
2021/04/15 02:09:35;;;;;;;9.70;5.50;;;;;;;0.92;87.58;98357.75;1785850;80;21245;-72
2021/04/15 02:12:13;;;;;;;8.05;5.80;;;;;;;0.92;87.67;98361.76;1755441;80;21033;-72
2021/04/15 02:14:41;;;;;;;7.70;5.42;;;;;;;0.90;87.94;98355.30;1785930;79;20968;-73
2021/04/15 02:17:07;;;;;;;9.45;5.80;;;;;;;0.94;87.07;98361.87;1785812;80;21487;-73
2021/04/15 02:19:41;;;;;;;9.55;5.80;;;;;;;0.95;87.42;98359.51;1785848;79;21086;-73
2021/04/15 02:22:13;;;;;;;8.48;6.67;;;;;;;0.87;87.96;98360.25;1785894;80;21200;-72
2021/04/15 02:25:11;;;;;;;6.17;4.53;;;;;;;0.91;86.88;98360.13;1797780;79;20959;-72
2021/04/15 02:27:59;;;;;;;5.60;5.00;;;;;;;0.86;87.71;98359.95;1797930;79;21055;-72
2021/04/15 02:31:08;;;;;;;5.10;4.30;;;;;;;0.86;87.41;98354.09;1797917;79;21240;-73
2021/04/15 02:33:37;;;;;;;;;;;;;;;0.86;87.41;98355.43;1800514;79;21054;-72
2021/04/15 02:36:05;;;;;;;7.25;4.58;;;;;;;0.93;86.76;98355.39;1797404;79;26286;-72
2021/04/15 02:38:47;;;;;;;;;;;;;;;0.86;87.61;98351.42;1799811;79;21062;-72
2021/04/15 02:41:18;;;;;;;7.58;5.15;;;;;;;0.92;86.71;98353.23;1797370;79;20222;-72
2021/04/15 02:43:51;;;;;;;6.87;5.45;;;;;;;0.89;86.40;98352.84;1770625;79;21054;-72
2021/04/15 02:46:29;;;;;;;5.85;4.70;;;;;;;0.91;86.63;98346.78;1797160;79;21117;-72
2021/04/15 02:48:57;;;;;;;6.78;4.60;;;;;;;0.88;87.31;98347.20;1797470;79;21196;-72
2021/04/15 02:51:32;;;;;;;7.65;5.78;;;;;;;0.85;87.55;98345.76;1797500;79;21416;-72
2021/04/15 02:54:04;;;;;;;8.43;5.47;;;;;;;0.93;86.67;98344.20;1790127;79;21117;-73
2021/04/15 02:56:49;;;;;;;5.95;4.90;;;;;;;0.98;86.57;98343.58;1796727;79;21498;-73
2021/04/15 02:59:22;;;;;;;5.83;4.20;;;;;;;0.96;86.84;98341.13;1797383;79;21392;-73
2021/04/15 03:01:55;;;;;;;4.78;4.17;;;;;;;1.01;86.46;98336.48;1771669;79;21194;-73
2021/04/15 03:04:42;;;;;;;5.00;4.50;;;;;;;1.04;86.54;98342.23;1797145;79;21043;-71
2021/04/15 03:07:08;;;;;;;9.93;5.55;;;;;;;1.07;86.21;98337.80;1765237;81;21116;-72
2021/04/15 03:09:50;;;;;;;7.45;5.67;;;;;;;1.10;86.17;98336.55;1765283;81;21086;-72
2021/04/15 03:12:21;;;;;;;6.30;5.33;;;;;;;1.10;85.87;98336.03;1765331;81;21129;-72
2021/04/15 03:14:55;;;;;;;8.40;6.37;;;;;;;1.08;86.20;98337.28;1765223;81;21196;-73
2021/04/15 03:17:22;;;;;;;7.25;5.37;;;;;;;1.10;85.54;98333.88;1765251;81;21446;-72
2021/04/15 03:20:03;;;;;;;10.60;7.12;;;;;;;1.10;85.72;98336.03;1765222;81;21113;-72
2021/04/15 03:23:24;;;;;;;9.65;7.37;;;;;;;1.08;85.70;98335.43;1741260;81;21533;-72
2021/04/15 03:25:51;;;;;;;9.08;5.97;;;;;;;1.06;86.28;98340.16;1717077;83;21463;-73
2021/04/15 03:28:29;;;;;;;8.65;6.15;;;;;;;1.10;85.78;98335.21;1711985;81;22135;-73
2021/04/15 03:31:07;;;;;;;8.35;6.90;;;;;;;1.12;85.49;98335.84;1773904;79;21483;-73
2021/04/15 03:33:43;;;;;;;8.53;5.58;;;;;;;1.15;85.60;98340.75;1797191;79;21113;-72
2021/04/15 03:36:26;;;;;;;9.10;6.22;;;;;;;1.15;85.69;98330.07;1797332;79;21503;-73
2021/04/15 03:39:03;;;;;;;8.83;6.72;;;;;;;1.20;85.56;98334.27;1797214;79;21067;-72
2021/04/15 03:41:40;;;;;;;9.03;6.60;;;;;;;1.19;85.50;98331.79;1797313;79;21471;-73
2021/04/15 03:44:13;;;;;;;9.83;6.87;;;;;;;1.17;85.37;98329.85;1797204;79;21133;-72
2021/04/15 03:46:56;;;;;;;11.70;7.60;;;;;;;1.15;85.51;98331.41;1796360;79;21102;-73
2021/04/15 03:49:43;;;;;;;9.78;6.97;;;;;;;1.15;85.17;98331.92;1797254;79;22371;-72
2021/04/15 03:52:18;;;;;;;8.23;6.05;;;;;;;1.18;85.12;98334.98;1796851;79;21480;-73
2021/04/15 03:54:49;;;;;;;9.25;6.20;;;;;;;1.22;85.05;98332.72;1797279;79;21243;-72
2021/04/15 03:57:19;;;;;;;8.65;6.75;;;;;;;1.23;84.95;98337.02;1797182;79;21042;-72
2021/04/15 04:00:05;;;;;;;8.63;7.37;;;;;;;1.27;84.95;98334.22;1797199;79;21022;-72
2021/04/15 04:02:42;;;;;;;11.73;6.58;;;;;;;1.26;85.26;98336.08;1797269;79;21046;-73
2021/04/15 04:05:19;;;;;;;11.08;7.15;;;;;;;1.25;85.29;98335.77;1796370;79;21125;-71
2021/04/15 04:07:50;;;;;;;51.88;26.10;;;;;;;1.24;85.07;98331.98;1796891;79;21177;-73
2021/04/15 04:10:24;;;;;;;40.12;19.95;;;;;;;1.20;85.43;98334.27;1797123;79;21094;-73
2021/04/15 04:13:31;;;;;;;22.32;11.95;;;;;;;1.17;85.40;98338.68;1796913;79;21114;-72
2021/04/15 04:16:22;;;;;;;13.15;8.73;;;;;;;1.18;85.19;98342.16;1797155;79;21110;-73
2021/04/15 04:19:14;;;;;;;9.30;6.92;;;;;;;1.18;85.18;98334.16;1797250;79;21106;-72
2021/04/15 04:22:09;;;;;;;20.27;11.08;;;;;;;1.20;84.85;98337.43;1797280;79;21249;-72
2021/04/15 04:24:47;;;;;;;53.05;32.30;;;;;;;1.22;84.93;98334.88;1761934;80;21102;-73
2021/04/15 04:27:24;;;;;;;14.03;8.88;;;;;;;1.23;84.87;98337.02;1785241;79;21038;-74
2021/04/15 04:30:07;;;;;;;14.55;9.98;;;;;;;1.24;85.09;98345.34;1785251;79;21487;-71
2021/04/15 04:32:34;;;;;;;11.75;8.28;;;;;;;1.28;84.82;98341.20;1785290;80;21095;-73
2021/04/15 04:35:01;;;;;;;14.78;13.20;;;;;;;1.18;85.09;98341.65;1785217;80;21194;-73
2021/04/15 04:37:48;;;;;;;8.30;6.55;;;;;;;1.19;84.95;98345.14;1785101;80;21075;-73
2021/04/15 04:40:21;;;;;;;10.03;7.12;;;;;;;1.16;85.21;98346.39;1779982;80;20904;-73
2021/04/15 04:43:07;;;;;;;11.08;8.60;;;;;;;1.13;85.49;98349.49;1785206;80;21223;-72
2021/04/15 04:45:34;;;;;;;11.12;8.33;;;;;;;1.13;84.97;98344.97;1785188;80;21046;-72
2021/04/15 04:48:30;;;;;;;10.58;6.97;;;;;;;1.18;84.95;98344.31;1785156;80;22068;-72
2021/04/15 04:51:10;;;;;;;7.33;6.20;;;;;;;1.16;85.54;98354.40;1785174;80;21126;-72
2021/04/15 04:53:43;;;;;;;8.63;6.20;;;;;;;1.22;85.01;98347.41;1785135;79;21114;-72
2021/04/15 04:56:30;;;;;;;11.10;9.35;;;;;;;1.24;84.91;98347.48;1785140;80;21118;-72
2021/04/15 04:59:11;;;;;;;10.58;8.10;;;;;;;1.10;85.72;98355.23;1754546;80;21153;-73
2021/04/15 05:01:41;;;;;;;54.30;37.45;;;;;;;1.12;85.16;98355.34;1785190;80;21252;-73
2021/04/15 05:04:08;;;;;;;30.70;22.80;;;;;;;1.04;86.24;98353.42;1785040;80;21070;-71
2021/04/15 05:06:41;;;;;;;24.23;17.17;;;;;;;1.08;85.58;98353.30;1785225;79;21039;-71
2021/04/15 05:09:29;;;;;;;133.57;67.10;;;;;;;1.11;85.63;98351.53;1785147;80;21078;-72
2021/04/15 05:11:56;;;;;;;36.33;25.17;;;;;;;1.15;85.24;98347.42;1754842;80;21538;-72
2021/04/15 05:14:25;;;;;;;11.90;9.25;;;;;;;1.08;85.85;98346.11;1785122;80;21110;-72
2021/04/15 05:17:25;;;;;;;9.70;7.70;;;;;;;1.13;85.58;98348.16;1779896;79;21078;-74
2021/04/15 05:19:51;;;;;;;8.45;6.78;;;;;;;1.25;85.33;98348.30;1784656;80;21019;-75
2021/04/15 05:22:28;;;;;;;17.27;12.80;;;;;;;1.29;85.22;98346.34;1783022;80;21077;-75
2021/04/15 05:25:00;;;;;;;29.90;19.67;;;;;;;1.37;85.00;98346.63;1762344;79;21121;-78
2021/04/15 05:27:26;;;;;;;14.10;9.30;;;;;;;1.44;85.00;98343.90;1784885;80;22049;-82
2021/04/15 05:30:06;;;;;;;12.95;7.75;;;;;;;1.46;84.77;98345.34;1785006;79;21027;-78
2021/04/15 05:32:43;;;;;;;10.25;6.67;;;;;;;1.56;84.72;98344.88;1852393;77;22619;-75
2021/04/15 05:35:17;;;;;;;14.23;10.65;;;;;;;1.55;84.42;98348.07;1820163;78;21079;-71
2021/04/15 05:37:44;;;;;;;13.15;9.93;;;;;;;1.55;84.26;98349.41;1820182;78;21200;-73
2021/04/15 05:40:11;;;;;;;11.03;6.83;;;;;;;1.51;84.16;98347.36;1819917;78;20953;-72
2021/04/15 05:42:44;;;;;;;8.70;6.20;;;;;;;1.46;83.65;98344.53;1820127;78;21495;-73
2021/04/15 05:45:23;;;;;;;10.80;8.38;;;;;;;1.50;83.96;98349.21;1820052;78;21063;-72
2021/04/15 05:48:05;;;;;;;11.20;8.93;;;;;;;1.52;84.26;98344.98;1820274;78;20941;-73
2021/04/15 05:50:38;;;;;;;32.38;22.95;;;;;;;1.48;84.19;98341.94;1820013;78;21200;-72
2021/04/15 05:53:12;;;;;;;18.70;12.70;;;;;;;1.53;84.12;98345.28;1770160;80;21083;-72
2021/04/15 05:55:54;;;;;;;12.53;10.03;;;;;;;1.58;84.06;98345.48;1787730;80;21317;-73
2021/04/15 05:58:29;;;;;;;14.53;11.95;;;;;;;1.61;84.06;98344.52;1787802;80;21091;-73
2021/04/15 06:01:16;;;;;;;10.23;6.62;;;;;;;1.62;83.94;98342.18;1787695;80;21103;-71
2021/04/15 06:04:22;;;;;;;15.63;10.82;;;;;;;1.67;83.74;98346.34;1787730;79;21189;-73
2021/04/15 06:06:48;;;;;;;13.55;9.33;;;;;;;1.70;83.80;98345.09;1787628;80;21420;-72
2021/04/15 06:09:15;;;;;;;10.75;8.03;;;;;;;1.64;83.71;98346.78;1787767;80;21130;-72
2021/04/15 06:12:12;;;;;;;30.95;8.05;;;;;;;1.73;83.48;98347.87;1787205;80;21043;-73
2021/04/15 06:14:54;;;;;;;35.48;10.65;;;;;;;1.80;83.56;98337.45;1787589;80;21122;-72
2021/04/15 06:17:40;;;;;;;21.35;10.25;;;;;;;1.83;83.39;98334.84;1787767;80;21265;-72
2021/04/15 06:20:26;;;;;;;16.20;9.13;;;;;;;1.85;83.29;98333.59;1787432;80;21150;-73
2021/04/15 06:22:56;;;;;;;14.65;8.93;;;;;;;1.80;83.03;98340.63;1787668;80;21075;-73
2021/04/15 06:25:28;;;;;;;14.38;7.75;;;;;;;1.82;83.26;98337.22;1787667;80;21079;-72
2021/04/15 06:27:59;;;;;;;14.73;11.70;;;;;;;1.89;83.32;98334.81;1787671;80;21114;-74
2021/04/15 06:30:39;;;;;;;18.35;11.20;;;;;;;1.90;83.02;98330.28;1787191;80;21476;-74
2021/04/15 06:33:13;;;;;;;10.40;6.05;;;;;;;1.81;83.08;98336.92;1787668;80;21134;-73
2021/04/15 06:35:39;;;;;;;12.37;8.95;;;;;;;1.87;82.59;98337.38;1787655;79;21040;-74
2021/04/15 06:38:11;;;;;;;18.05;12.98;;;;;;;1.80;83.04;98338.78;1768016;80;21205;-72
2021/04/15 06:40:48;;;;;;;15.53;7.22;;;;;;;1.87;83.03;98336.05;1787442;80;21051;-73
2021/04/15 06:44:01;;;;;;;88.62;16.82;;;;;;;1.93;82.80;98329.32;1769254;80;21095;-73
2021/04/15 06:46:39;;;;;;;129.30;23.95;;;;;;;1.86;82.79;98330.40;1787031;79;21103;-72
2021/04/15 06:49:47;;;;;;;50.12;12.50;;;;;;;1.95;82.87;98325.09;1787137;80;21131;-73
2021/04/15 06:52:39;;;;;;;26.70;9.15;;;;;;;1.93;83.03;98327.98;1787122;80;21189;-72
2021/04/15 06:55:40;;;;;;;24.80;9.63;;;;;;;1.96;82.83;98332.88;1787241;80;21107;-73
2021/04/15 06:58:29;;;;;;;23.50;9.43;;;;;;;1.93;82.89;98329.84;1787282;79;21199;-74
2021/04/15 07:01:30;;;;;;;18.57;7.00;;;;;;;1.95;82.58;98331.77;1787186;79;21516;-72
2021/04/15 07:04:19;;;;;;;24.02;11.33;;;;;;;1.96;82.62;98328.88;1787047;80;21551;-73
2021/04/15 07:07:06;;;;;;;27.35;7.55;;;;;;;1.89;82.88;98325.45;1786809;79;21122;-73
2021/04/15 07:10:15;;;;;;;22.17;8.73;;;;;;;1.77;83.05;98328.50;1787134;80;21083;-74
2021/04/15 07:13:22;;;;;;;9.73;7.80;;;;;;;1.83;82.91;98330.84;1787313;79;21409;-73
2021/04/15 07:16:16;;;;;;;10.10;5.78;;;;;;;1.78;82.95;98324.80;1787003;79;21130;-73
2021/04/15 07:18:56;;;;;;;20.40;6.95;;;;;;;1.92;82.74;98329.55;1787140;80;21067;-73
2021/04/15 07:21:40;;;;;;;23.18;10.00;;;;;;;2.06;82.65;98335.62;1786640;80;21023;-73
2021/04/15 07:24:33;;;;;;;232.55;34.08;;;;;;;2.11;82.62;98329.91;1767687;80;21100;-73
2021/04/15 07:27:55;;;;;;;64.30;21.62;;;;;;;2.29;82.64;98331.81;1767263;79;21198;-73
2021/04/15 07:31:00;;;;;;;15.20;11.53;;;;;;;2.38;82.26;98333.69;1787041;79;21166;-73
2021/04/15 07:33:53;;;;;;;12.93;8.65;;;;;;;2.45;82.01;98331.27;1774811;79;21138;-72
2021/04/15 07:36:46;;;;;;;17.90;7.95;;;;;;;2.44;81.79;98333.64;1787132;79;21412;-73
2021/04/15 07:39:41;;;;;;;35.98;8.85;;;;;;;2.45;81.73;98337.95;1787094;79;21169;-74
2021/04/15 07:42:31;;;;;;;102.85;10.38;;;;;;;2.54;81.71;98337.14;1786789;80;21477;-72
2021/04/15 07:45:28;;;;;;;17.73;6.05;;;;;;;2.60;81.47;98332.78;1787158;79;21536;-73
2021/04/15 07:48:34;;;;;;;21.07;12.65;;;;;;;2.44;81.07;98338.17;1767425;80;21103;-72
2021/04/15 07:51:15;;;;;;;18.40;8.13;;;;;;;2.62;81.27;98338.72;1786980;80;21052;-73
2021/04/15 07:53:53;;;;;;;7.50;5.30;;;;;;;2.71;81.36;98342.23;1787103;79;21083;-73
2021/04/15 07:56:47;;;;;;;134.80;24.30;;;;;;;2.70;80.84;98341.12;1783596;80;22175;-72
2021/04/15 07:59:50;;;;;;;17.17;7.70;;;;;;;2.66;80.58;98339.94;1776553;80;21319;-72
2021/04/15 08:02:53;;;;;;;23.67;9.80;;;;;;;2.52;80.21;98348.08;1784382;79;21083;-73
2021/04/15 08:06:02;;;;;;;69.87;29.30;;;;;;;2.67;80.44;98341.05;1787135;79;21543;-73
2021/04/15 08:08:58;;;;;;;16.62;10.15;;;;;;;2.75;80.45;98350.13;1787272;80;21182;-72
2021/04/15 08:12:15;;;;;;;11.10;6.97;;;;;;;2.77;79.85;98341.35;1786994;79;21596;-72
2021/04/15 08:15:02;;;;;;;11.70;7.53;;;;;;;2.73;79.94;98340.66;1787234;80;21103;-74
2021/04/15 08:18:06;;;;;;;50.90;24.35;;;;;;;2.91;79.99;98347.39;1787037;79;21032;-72
2021/04/15 08:20:57;;;;;;;15.08;9.40;;;;;;;3.00;79.94;98344.72;1747420;80;21043;-72
2021/04/15 08:23:45;;;;;;;11.83;8.90;;;;;;;3.07;79.97;98348.12;1786181;80;21166;-73
2021/04/15 08:26:46;;;;;;;20.77;14.45;;;;;;;2.89;79.23;98345.96;1786798;80;21198;-72
2021/04/15 08:29:43;;;;;;;8.40;5.85;;;;;;;3.07;79.73;98348.12;1787006;80;21099;-72
2021/04/15 08:32:36;;;;;;;6.25;5.10;;;;;;;3.05;78.77;98348.05;1790599;79;21396;-73
2021/04/15 08:35:22;;;;;;;9.40;4.42;;;;;;;2.91;79.31;98342.05;1795698;80;21094;-72
2021/04/15 08:38:28;;;;;;;12.23;5.70;;;;;;;2.97;79.16;98342.47;1794796;79;21189;-73
2021/04/15 08:41:11;;;;;;;9.88;7.47;;;;;;;3.03;79.62;98348.28;1795745;80;21484;-73
2021/04/15 08:44:14;;;;;;;14.40;9.75;;;;;;;3.21;79.61;98350.66;1795637;80;21119;-72
2021/04/15 08:46:51;;;;;;;47.43;24.00;;;;;;;3.10;79.27;98342.86;1795685;80;21031;-72
2021/04/15 08:49:59;;;;;;;21.95;13.22;;;;;;;3.23;79.29;98349.38;1775325;80;21126;-73
2021/04/15 08:52:44;;;;;;;12.03;8.03;;;;;;;3.14;79.37;98348.05;1795864;79;21496;-72
2021/04/15 08:55:24;;;;;;;11.25;7.20;;;;;;;2.90;79.57;98344.91;1778648;80;21272;-72
2021/04/15 08:58:18;;;;;;;10.45;7.25;;;;;;;2.89;79.58;98346.78;1794592;79;21047;-72
2021/04/15 09:01:15;;;;;;;12.23;6.70;;;;;;;2.94;79.32;98339.44;1795556;79;21162;-72
2021/04/15 09:03:50;;;;;;;16.10;11.25;;;;;;;3.04;79.47;98342.41;1780073;80;21527;-72
2021/04/15 09:06:44;;;;;;;12.05;8.78;;;;;;;2.81;79.54;98345.73;1795804;79;21103;-73
2021/04/15 09:09:21;;;;;;;8.30;6.22;;;;;;;2.98;79.50;98340.09;1795720;79;21193;-72
2021/04/15 09:12:17;;;;;;;11.88;8.33;;;;;;;3.11;79.74;98339.95;1795535;79;21044;-72
2021/04/15 09:14:50;;;;;;;17.30;12.85;;;;;;;3.28;79.76;98344.70;1795365;79;21110;-72
2021/04/15 09:17:47;;;;;;;12.93;8.80;;;;;;;3.40;79.58;98342.37;1795713;79;21150;-73
2021/04/15 09:20:34;;;;;;;25.37;16.52;;;;;;;3.49;79.44;98340.20;1795752;79;21531;-72
2021/04/15 09:23:47;;;;;;;14.83;10.18;;;;;;;3.58;79.12;98346.87;1795797;79;21189;-72
2021/04/15 09:26:33;;;;;;;11.90;8.90;;;;;;;3.55;78.18;98341.98;1795639;79;21120;-72
2021/04/15 09:29:17;;;;;;;12.80;9.30;;;;;;;3.36;77.57;98337.18;1795497;79;21495;-73
2021/04/15 09:31:54;;;;;;;11.08;7.72;;;;;;;3.42;78.10;98331.45;1779034;79;21173;-72
2021/04/15 09:35:01;;;;;;;14.45;10.68;;;;;;;3.44;78.56;98332.03;1787081;80;21143;-73
2021/04/15 09:38:02;;;;;;;15.10;6.92;;;;;;;3.34;78.61;98332.58;1786695;80;21550;-73
2021/04/15 09:40:46;;;;;;;18.23;7.70;;;;;;;3.32;78.39;98339.18;1787059;79;21591;-72
2021/04/15 09:43:45;;;;;;;40.05;9.70;;;;;;;3.43;78.60;98342.46;1786923;79;21130;-73
2021/04/15 09:46:30;;;;;;;;;;;;;;;3.54;78.64;98343.55;1789499;80;21027;-72
2021/04/15 09:49:26;;;;;;;9.20;6.20;;;;;;;3.72;78.76;98342.69;1787040;80;20248;-72
2021/04/15 09:52:17;;;;;;;12.25;7.70;;;;;;;3.79;78.28;98347.44;1786948;79;22167;-72
2021/04/15 09:55:24;;;;;;;26.55;13.18;;;;;;;3.88;78.48;98346.87;1786965;80;21535;-72
2021/04/15 09:58:18;;;;;;;73.78;38.92;;;;;;;3.95;78.18;98348.13;1787142;79;21416;-73
2021/04/15 10:00:48;;;;;;;55.00;32.63;;;;;;;4.06;77.38;98346.52;1787052;80;21115;-72
2021/04/15 10:03:35;;;;;;;31.07;19.25;;;;;;;4.00;77.20;98341.54;1787012;80;21435;-72
2021/04/15 10:06:28;;;;;;;90.22;53.10;;;;;;;3.97;76.89;98343.35;1786889;80;21205;-72
2021/04/15 10:09:09;;;;;;;59.42;37.15;;;;;;;4.02;77.32;98341.34;1786862;80;21135;-73
2021/04/15 10:12:04;;;;;;;28.25;17.98;;;;;;;4.07;76.98;98340.92;1786981;79;21098;-73
2021/04/15 10:14:50;;;;;;;12.43;9.45;;;;;;;4.04;77.00;98338.71;1786974;79;21102;-74
2021/04/15 10:17:25;;;;;;;33.50;21.00;;;;;;;4.12;77.43;98343.74;1731718;80;21095;-72
2021/04/15 10:20:18;;;;;;;12.95;8.20;;;;;;;4.18;77.26;98340.12;1787150;79;22745;-73
2021/04/15 10:23:05;;;;;;;13.40;9.18;;;;;;;4.35;77.42;98341.60;1787035;79;21103;-73
2021/04/15 10:25:42;;;;;;;25.55;18.00;;;;;;;4.39;77.13;98337.42;1787215;79;21081;-73
2021/04/15 10:28:46;;;;;;;208.50;97.82;;;;;;;4.32;77.60;98335.37;1787124;80;21028;-72
2021/04/15 10:31:45;;;;;;;206.25;96.80;;;;;;;4.33;77.61;98332.16;1775818;80;21008;-72
2021/04/15 10:34:15;;;;;;;;;;;;;;;4.31;77.34;98336.42;1742693;79;22204;-72
2021/04/15 10:36:54;;;;;;;22.45;11.73;;;;;;;4.36;76.22;98333.03;1786682;80;20220;-73
2021/04/15 10:39:59;;;;;;;10.08;7.28;;;;;;;4.24;75.80;98327.13;1787156;79;21064;-73
2021/04/15 10:42:57;;;;;;;112.92;16.95;;;;;;;4.02;75.56;98324.72;1787069;80;21119;-72
2021/04/15 10:45:51;;;;;;;28.75;14.85;;;;;;;4.14;75.79;98325.55;1787137;79;21118;-72
2021/04/15 10:48:51;;;;;;;49.10;11.50;;;;;;;4.29;75.61;98320.27;1787089;80;21244;-72
2021/04/15 10:51:39;;;;;;;15.05;6.75;;;;;;;4.25;75.38;98322.58;1787076;79;21476;-72
2021/04/15 10:54:37;;;;;;;17.05;10.20;;;;;;;4.51;75.42;98317.29;1787220;80;21504;-72
2021/04/15 10:57:26;;;;;;;18.90;11.75;;;;;;;4.69;75.80;98323.87;1787258;79;21115;-72
2021/04/15 10:59:52;;;;;;;11.25;6.92;;;;;;;4.78;76.13;98323.00;1786082;80;21130;-72
2021/04/15 11:02:26;;;;;;;11.78;6.87;;;;;;;4.70;75.20;98321.52;1787116;79;21567;-72
2021/04/15 11:05:00;;;;;;;8.78;6.70;;;;;;;4.76;75.31;98325.11;1787128;80;21067;-73
2021/04/15 11:07:33;;;;;;;10.30;6.67;;;;;;;4.67;74.98;98321.95;1785123;80;21064;-73
2021/04/15 11:10:04;;;;;;;21.42;12.00;;;;;;;4.57;74.42;98324.42;1787155;79;21115;-73
2021/04/15 11:12:31;;;;;;;15.25;11.35;;;;;;;4.51;73.96;98327.50;1767556;80;21008;-73
2021/04/15 11:15:22;;;;;;;13.28;10.00;;;;;;;4.43;74.50;98326.50;1787123;80;21262;-72
2021/04/15 11:17:46;;;;;;;;;;;;;;;4.50;74.17;98319.69;1789405;80;21127;-73
2021/04/15 11:20:32;;;;;;;11.40;7.40;;;;;;;4.46;73.92;98325.24;1787042;80;20295;-72
2021/04/15 11:23:19;;;;;;;8.80;7.00;;;;;;;4.50;74.16;98320.50;1767396;80;21095;-73
2021/04/15 11:25:48;;;;;;;24.70;15.18;;;;;;;4.73;74.36;98321.56;1787061;80;21083;-73
2021/04/15 11:28:26;;;;;;;60.85;40.35;;;;;;;4.91;73.93;98317.39;1786998;80;21405;-72
2021/04/15 11:30:57;;;;;;;59.03;43.02;;;;;;;4.97;74.31;98325.05;1787109;79;21429;-72
2021/04/15 11:33:47;;;;;;;46.73;35.52;;;;;;;5.15;73.98;98320.05;1791516;79;21176;-72
2021/04/15 11:36:26;;;;;;;27.32;20.55;;;;;;;5.25;74.37;98317.03;1795786;79;21142;-72
2021/04/15 11:39:13;;;;;;;12.03;8.28;;;;;;;5.21;72.10;98325.79;1795955;80;21417;-71
2021/04/15 11:42:02;;;;;;;15.93;10.43;;;;;;;5.00;72.79;98323.22;1795732;79;22062;-72
2021/04/15 11:44:54;;;;;;;12.80;9.05;;;;;;;4.88;71.69;98315.72;1795309;79;21507;-72
2021/04/15 11:47:27;;;;;;;20.65;14.78;;;;;;;4.87;72.43;98325.64;1795715;80;21043;-71
2021/04/15 11:49:54;;;;;;;12.00;9.80;;;;;;;4.88;72.87;98321.09;1795753;80;21539;-73
2021/04/15 11:52:33;;;;;;;16.10;14.50;;;;;;;4.91;72.60;98320.08;1795665;79;21023;-73
2021/04/15 11:55:10;;;;;;;15.40;12.88;;;;;;;4.91;72.72;98316.05;1795928;80;21237;-72
2021/04/15 11:57:39;;;;;;;15.23;10.85;;;;;;;4.90;72.45;98327.84;1795627;79;21059;-73
2021/04/15 12:00:20;;;;;;;10.35;7.70;;;;;;;4.90;73.15;98322.48;1795288;79;21121;-73
2021/04/15 12:02:58;;;;;;;11.22;7.20;;;;;;;5.02;73.21;98323.27;1795150;79;21118;-73
2021/04/15 12:05:35;;;;;;;12.53;9.75;;;;;;;5.13;73.01;98325.66;1795778;79;21090;-72
2021/04/15 12:08:26;;;;;;;11.18;8.23;;;;;;;5.13;72.39;98316.25;1795745;79;21244;-72
2021/04/15 12:11:32;;;;;;;14.40;10.90;;;;;;;5.20;72.45;98319.60;1795632;79;21019;-72
2021/04/15 12:14:16;;;;;;;14.38;9.30;;;;;;;5.28;72.48;98316.54;1795535;79;21158;-72
2021/04/15 12:16:53;;;;;;;35.28;11.97;;;;;;;5.40;72.45;98311.15;1795790;79;21016;-72
2021/04/15 12:19:54;;;;;;;12.50;9.25;;;;;;;5.29;71.76;98312.80;1795797;79;21495;-71
2021/04/15 12:22:28;;;;;;;31.07;7.45;;;;;;;5.20;71.11;98311.54;1795304;79;21392;-73
2021/04/15 12:25:09;;;;;;;32.45;10.23;;;;;;;5.20;72.58;98316.91;1795631;79;21162;-72
2021/04/15 12:27:35;;;;;;;49.90;24.67;;;;;;;5.23;72.87;98314.30;1795664;79;21070;-72
2021/04/15 12:30:14;;;;;;;26.90;13.10;;;;;;;5.33;73.08;98313.97;1795671;79;21090;-72
2021/04/15 12:33:26;;;;;;;15.50;8.85;;;;;;;5.53;73.19;98317.57;1795651;79;21272;-72
2021/04/15 12:35:58;;;;;;;43.05;23.73;;;;;;;5.72;72.03;98314.69;1795696;79;21444;-72
2021/04/15 12:38:29;;;;;;;32.28;18.40;;;;;;;5.45;71.77;98315.79;1795630;79;21094;-72
2021/04/15 12:41:00;;;;;;;30.68;27.27;;;;;;;5.23;72.03;98316.98;1795730;79;21106;-73
2021/04/15 12:43:31;;;;;;;19.35;14.83;;;;;;;5.01;72.31;98321.63;1795737;79;21154;-71